RAM719 LFLL-GMMN
Flight info
| Callsign | RAM719 |
|---|---|
| Flight time | N/A |
| Altitude | 33000 |
| Route | REPSI DCT LERGA DCT MINSO DCT NARAK DCT AGN/N0439F370 DCT MAQAB DCT TIVLI DCT ELSAP DCT ZAR DCT EXEMU DCT PISUS DCT EDIMU DCT ADUXO DCT NUSGO DCT OBIBO DCT NASOS L27 BLN DCT MGA DCT PIMOS DCT GALTO UB11 TUSOR |
| Aircraft | B738/M-SDE2E3FGHIRWXY/LB1 |
Departure
| Time | N/A |
|---|---|
| Airport | Lyon Saint-Exupéry Airport (LFLL) |
Arrival
| Time | 2026-04-28 14:05 |
|---|---|
| Airport | Mohammed V International Airport (GMMN) |
| Time | Latitude | Longitude | Altitude | Speed | Heading |
|---|---|---|---|---|---|
| 2026-04-28 13:52 | 33.74110 | -7.00356 | 12602 ft | 301 kts | 217° |
| 2026-04-28 13:52 | 33.72435 | -7.01828 | 12282 ft | 298 kts | 217° |
| 2026-04-28 13:52 | 33.70769 | -7.03292 | 11954 ft | 296 kts | 217° |
| 2026-04-28 13:53 | 33.69109 | -7.04752 | 11627 ft | 294 kts | 217° |
| 2026-04-28 13:53 | 33.67461 | -7.06199 | 11301 ft | 292 kts | 217° |
| 2026-04-28 13:53 | 33.65807 | -7.07651 | 10971 ft | 290 kts | 217° |
| 2026-04-28 13:53 | 33.64183 | -7.09076 | 10652 ft | 289 kts | 217° |
| 2026-04-28 13:54 | 33.62613 | -7.10524 | 10311 ft | 287 kts | 225° |
| 2026-04-28 13:54 | 33.61541 | -7.12541 | 10009 ft | 283 kts | 252° |
| 2026-04-28 13:54 | 33.61101 | -7.14771 | 9835 ft | 276 kts | 258° |
| 2026-04-28 13:54 | 33.60702 | -7.17015 | 9511 ft | 275 kts | 258° |
| 2026-04-28 13:55 | 33.60317 | -7.19260 | 9195 ft | 274 kts | 259° |
| 2026-04-28 13:55 | 33.59941 | -7.21489 | 8889 ft | 272 kts | 259° |
| 2026-04-28 13:55 | 33.59568 | -7.23734 | 8582 ft | 270 kts | 259° |
| 2026-04-28 13:55 | 33.59204 | -7.25936 | 8284 ft | 269 kts | 259° |
| 2026-04-28 13:56 | 33.58847 | -7.28106 | 7982 ft | 267 kts | 259° |
| 2026-04-28 13:56 | 33.58490 | -7.30277 | 7685 ft | 266 kts | 259° |
| 2026-04-28 13:56 | 33.58128 | -7.32476 | 7387 ft | 264 kts | 259° |
| 2026-04-28 13:56 | 33.57773 | -7.34632 | 7096 ft | 263 kts | 258° |
| 2026-04-28 13:57 | 33.57422 | -7.36764 | 6874 ft | 259 kts | 258° |
| 2026-04-28 13:57 | 33.57073 | -7.38877 | 6597 ft | 255 kts | 258° |
| 2026-04-28 13:57 | 33.56734 | -7.40932 | 6361 ft | 247 kts | 258° |
| 2026-04-28 13:57 | 33.56406 | -7.42913 | 6152 ft | 238 kts | 258° |
| 2026-04-28 13:58 | 33.56088 | -7.44834 | 5905 ft | 231 kts | 258° |
| 2026-04-28 13:58 | 33.55780 | -7.46690 | 5683 ft | 223 kts | 258° |
| 2026-04-28 13:58 | 33.55487 | -7.48458 | 5472 ft | 217 kts | 257° |
| 2026-04-28 13:58 | 33.55192 | -7.50240 | 5237 ft | 212 kts | 257° |
| 2026-04-28 13:59 | 33.54911 | -7.51932 | 5057 ft | 202 kts | 257° |
| 2026-04-28 13:59 | 33.54645 | -7.53533 | 4838 ft | 195 kts | 256° |
| 2026-04-28 13:59 | 33.54383 | -7.55099 | 4600 ft | 189 kts | 255° |
| 2026-04-28 13:59 | 33.54131 | -7.56619 | 4398 ft | 181 kts | 255° |
| 2026-04-28 14:00 | 33.53892 | -7.58057 | 4204 ft | 172 kts | 255° |
| 2026-04-28 14:00 | 33.53663 | -7.59429 | 3997 ft | 165 kts | 255° |
| 2026-04-28 14:00 | 33.53410 | -7.60755 | 3756 ft | 162 kts | 250° |
| 2026-04-28 14:00 | 33.52963 | -7.61954 | 3519 ft | 152 kts | 237° |
| 2026-04-28 14:01 | 33.52292 | -7.62897 | 3331 ft | 147 kts | 221° |
| 2026-04-28 14:01 | 33.51457 | -7.63591 | 3162 ft | 145 kts | 208° |
| 2026-04-28 14:01 | 33.50481 | -7.63793 | 3031 ft | 143 kts | 184° |
| 2026-04-28 14:01 | 33.49494 | -7.63617 | 2861 ft | 145 kts | 171° |
| 2026-04-28 14:02 | 33.48513 | -7.63269 | 2673 ft | 149 kts | 168° |
| 2026-04-28 14:02 | 33.47502 | -7.62909 | 2501 ft | 153 kts | 168° |
| 2026-04-28 14:02 | 33.46476 | -7.62554 | 2304 ft | 154 kts | 169° |
| 2026-04-28 14:02 | 33.45435 | -7.62196 | 2093 ft | 156 kts | 170° |
| 2026-04-28 14:03 | 33.44405 | -7.61842 | 1888 ft | 154 kts | 170° |
| 2026-04-28 14:03 | 33.43373 | -7.61485 | 1700 ft | 155 kts | 170° |
| 2026-04-28 14:03 | 33.42333 | -7.61132 | 1512 ft | 155 kts | 168° |
| 2026-04-28 14:03 | 33.41282 | -7.60766 | 1278 ft | 160 kts | 168° |
| 2026-04-28 14:04 | 33.40249 | -7.60384 | 1041 ft | 154 kts | 169° |
| 2026-04-28 14:04 | 33.39222 | -7.60043 | 853 ft | 150 kts | 171° |
| 2026-04-28 14:04 | 33.38224 | -7.59720 | 677 ft | 147 kts | 169° |
| 2026-04-28 14:04 | 33.37382 | -7.59434 | 659 ft | 91 kts | 162° |
| 2026-04-28 14:05 | 33.36923 | -7.59274 | 658 ft | 61 kts | 163° |
| 2026-04-28 14:05 | 33.36590 | -7.59159 | 658 ft | 32 kts | 165° |
| 2026-04-28 14:05 | 33.36535 | -7.59071 | 659 ft | 13 kts | 21° |
| 2026-04-28 14:05 | 33.36628 | -7.59042 | 659 ft | 15 kts | 13° |
| 2026-04-28 14:06 | 33.36742 | -7.59005 | 657 ft | 19 kts | 31° |
| 2026-04-28 14:06 | 33.36794 | -7.58866 | 656 ft | 18 kts | 76° |
| 2026-04-28 14:06 | 33.36832 | -7.58710 | 657 ft | 21 kts | 75° |
| 2026-04-28 14:06 | 33.36868 | -7.58558 | 656 ft | 17 kts | 73° |
| 2026-04-28 14:07 | 33.36904 | -7.58408 | 656 ft | 20 kts | 74° |
| 2026-04-28 14:07 | 33.36938 | -7.58266 | 657 ft | 11 kts | 70° |
| 2026-04-28 14:07 | 33.36999 | -7.58236 | 656 ft | 10 kts | 351° |
| 2026-04-28 14:07 | 33.37018 | -7.58215 | 656 ft | 4 kts | 72° |
| 2026-04-28 14:08 | 33.37028 | -7.58170 | 656 ft | 5 kts | 76° |
| 2026-04-28 14:08 | 33.37029 | -7.58161 | 656 ft | 0 kts | 79° |